sensor_id;sensor_type;location;lat;lon;timestamp;pressure;altitude;pressure_sealevel;temperature;humidity
69836;BME280;57132;51.972;4.450;2023-03-21T00:01:49;101549.13;;;8.35;100.00
69836;BME280;57132;51.972;4.450;2023-03-21T00:04:15;101526.19;;;8.33;100.00
69836;BME280;57132;51.972;4.450;2023-03-21T00:06:41;101526.09;;;8.34;100.00
69836;BME280;57132;51.972;4.450;2023-03-21T00:09:07;101514.72;;;8.32;100.00
69836;BME280;57132;51.972;4.450;2023-03-21T00:11:34;101522.75;;;8.31;100.00
69836;BME280;57132;51.972;4.450;2023-03-21T00:13:59;101516.72;;;8.27;100.00
69836;BME280;57132;51.972;4.450;2023-03-21T00:16:27;101521.25;;;8.25;100.00
69836;BME280;57132;51.972;4.450;2023-03-21T00:18:55;101528.53;;;8.22;100.00
69836;BME280;57132;51.972;4.450;2023-03-21T00:21:22;101511.81;;;8.20;100.00
69836;BME280;57132;51.972;4.450;2023-03-21T00:23:57;101506.56;;;8.18;100.00
69836;BME280;57132;51.972;4.450;2023-03-21T00:26:22;101520.78;;;8.17;100.00
69836;BME280;57132;51.972;4.450;2023-03-21T00:28:48;101515.53;;;8.16;100.00
69836;BME280;57132;51.972;4.450;2023-03-21T00:31:14;101507.63;;;8.14;100.00
69836;BME280;57132;51.972;4.450;2023-03-21T00:33:39;101515.63;;;8.14;100.00
69836;BME280;57132;51.972;4.450;2023-03-21T00:36:06;101511.25;;;8.13;100.00
69836;BME280;57132;51.972;4.450;2023-03-21T00:38:31;101514.84;;;8.12;100.00
69836;BME280;57132;51.972;4.450;2023-03-21T00:40:58;101523.75;;;8.11;100.00
69836;BME280;57132;51.972;4.450;2023-03-21T00:43:23;101514.03;;;8.10;100.00
69836;BME280;57132;51.972;4.450;2023-03-21T00:45:55;101507.97;;;8.08;100.00
69836;BME280;57132;51.972;4.450;2023-03-21T00:48:20;101510.69;;;8.06;100.00
69836;BME280;57132;51.972;4.450;2023-03-21T00:50:46;101505.34;;;8.06;100.00
69836;BME280;57132;51.972;4.450;2023-03-21T00:53:12;101494.72;;;8.06;100.00
69836;BME280;57132;51.972;4.450;2023-03-21T00:55:38;101505.44;;;8.05;100.00
69836;BME280;57132;51.972;4.450;2023-03-21T00:58:04;101499.28;;;8.04;100.00
69836;BME280;57132;51.972;4.450;2023-03-21T01:00:31;101495.75;;;8.04;100.00
69836;BME280;57132;51.972;4.450;2023-03-21T01:02:57;101488.69;;;8.03;100.00
69836;BME280;57132;51.972;4.450;2023-03-21T01:05:31;101483.31;;;8.04;100.00
69836;BME280;57132;51.972;4.450;2023-03-21T01:08:16;101483.31;;;8.04;100.00
69836;BME280;57132;51.972;4.450;2023-03-21T01:10:47;101483.22;;;8.06;100.00
69836;BME280;57132;51.972;4.450;2023-03-21T01:13:15;101471.66;;;8.07;100.00
69836;BME280;57132;51.972;4.450;2023-03-21T01:15:43;101467.19;;;8.07;100.00
69836;BME280;57132;51.972;4.450;2023-03-21T01:18:11;101469.72;;;8.10;100.00
69836;BME280;57132;51.972;4.450;2023-03-21T01:20:36;101471.34;;;8.13;100.00
69836;BME280;57132;51.972;4.450;2023-03-21T01:23:04;101464.09;;;8.17;100.00
69836;BME280;57132;51.972;4.450;2023-03-21T01:25:29;101470.25;;;8.17;100.00
69836;BME280;57132;51.972;4.450;2023-03-21T01:27:54;101457.69;;;8.21;100.00
69836;BME280;57132;51.972;4.450;2023-03-21T01:30:20;101460.19;;;8.24;100.00
69836;BME280;57132;51.972;4.450;2023-03-21T01:32:46;101451.16;;;8.26;100.00
69836;BME280;57132;51.972;4.450;2023-03-21T01:35:11;101445.78;;;8.28;100.00
69836;BME280;57132;51.972;4.450;2023-03-21T01:37:36;101446.66;;;8.28;100.00
69836;BME280;57132;51.972;4.450;2023-03-21T01:40:03;101436.88;;;8.29;100.00
69836;BME280;57132;51.972;4.450;2023-03-21T01:42:29;101450.94;;;8.31;100.00
69836;BME280;57132;51.972;4.450;2023-03-21T01:45:05;101449.91;;;8.33;100.00
69836;BME280;57132;51.972;4.450;2023-03-21T01:47:49;101454.38;;;8.33;100.00
69836;BME280;57132;51.972;4.450;2023-03-21T01:50:15;101449.06;;;8.33;100.00
69836;BME280;57132;51.972;4.450;2023-03-21T01:52:41;101447.50;;;8.29;100.00
69836;BME280;57132;51.972;4.450;2023-03-21T01:55:09;101452.03;;;8.27;100.00
69836;BME280;57132;51.972;4.450;2023-03-21T01:57:42;101466.41;;;8.23;100.00
69836;BME280;57132;51.972;4.450;2023-03-21T02:00:11;101445.38;;;8.18;100.00
69836;BME280;57132;51.972;4.450;2023-03-21T02:02:39;101446.38;;;8.16;100.00
69836;BME280;57132;51.972;4.450;2023-03-21T02:05:16;101434.13;;;8.13;100.00
69836;BME280;57132;51.972;4.450;2023-03-21T02:07:44;101436.84;;;8.11;100.00
69836;BME280;57132;51.972;4.450;2023-03-21T02:10:13;101427.31;;;8.07;100.00
69836;BME280;57132;51.972;4.450;2023-03-21T02:12:39;101427.41;;;8.06;100.00
69836;BME280;57132;51.972;4.450;2023-03-21T02:15:05;101432.00;;;8.02;100.00
69836;BME280;57132;51.972;4.450;2023-03-21T02:17:49;101427.63;;;8.01;100.00
69836;BME280;57132;51.972;4.450;2023-03-21T02:23:20;101412.63;;;8.00;100.00
69836;BME280;57132;51.972;4.450;2023-03-21T02:33:51;101387.81;;;8.00;100.00
69836;BME280;57132;51.972;4.450;2023-03-21T02:36:26;101402.75;;;8.02;100.00
69836;BME280;57132;51.972;4.450;2023-03-21T02:41:51;101399.41;;;7.99;100.00
69836;BME280;57132;51.972;4.450;2023-03-21T02:44:22;101386.19;;;7.97;100.00
69836;BME280;57132;51.972;4.450;2023-03-21T02:46:56;101388.78;;;7.99;100.00
69836;BME280;57132;51.972;4.450;2023-03-21T02:49:27;101387.91;;;7.98;100.00
69836;BME280;57132;51.972;4.450;2023-03-21T02:51:57;101391.56;;;7.96;100.00
69836;BME280;57132;51.972;4.450;2023-03-21T02:54:24;101383.59;;;7.96;100.00
69836;BME280;57132;51.972;4.450;2023-03-21T02:56:52;101390.72;;;7.95;100.00
69836;BME280;57132;51.972;4.450;2023-03-21T02:59:21;101388.84;;;7.97;100.00
69836;BME280;57132;51.972;4.450;2023-03-21T03:01:50;101379.00;;;7.99;100.00
69836;BME280;57132;51.972;4.450;2023-03-21T03:04:22;101376.44;;;7.98;100.00
69836;BME280;57132;51.972;4.450;2023-03-21T03:07:28;101378.13;;;7.99;100.00
69836;BME280;57132;51.972;4.450;2023-03-21T03:18:13;101387.66;;;8.03;100.00
69836;BME280;57132;51.972;4.450;2023-03-21T03:20:59;101387.75;;;8.01;100.00
69836;BME280;57132;51.972;4.450;2023-03-21T03:23:32;101386.19;;;7.97;100.00
69836;BME280;57132;51.972;4.450;2023-03-21T03:26:25;101383.59;;;7.96;100.00
69836;BME280;57132;51.972;4.450;2023-03-21T03:28:58;101373.06;;;7.94;100.00
69836;BME280;57132;51.972;4.450;2023-03-21T03:31:30;101375.47;;;7.99;100.00
69836;BME280;57132;51.972;4.450;2023-03-21T03:34:01;101375.47;;;7.99;100.00
69836;BME280;57132;51.972;4.450;2023-03-21T03:36:30;101371.88;;;8.00;100.00
69836;BME280;57132;51.972;4.450;2023-03-21T03:39:01;101365.69;;;7.99;100.00
69836;BME280;57132;51.972;4.450;2023-03-21T03:41:29;101367.44;;;8.00;100.00
69836;BME280;57132;51.972;4.450;2023-03-21T03:43:59;101370.09;;;8.00;100.00
69836;BME280;57132;51.972;4.450;2023-03-21T03:46:31;101361.19;;;8.01;100.00
69836;BME280;57132;51.972;4.450;2023-03-21T03:49:16;101362.03;;;8.02;100.00
69836;BME280;57132;51.972;4.450;2023-03-21T03:52:11;101362.97;;;8.01;100.00
69836;BME280;57132;51.972;4.450;2023-03-21T03:54:40;101357.72;;;7.99;100.00
69836;BME280;57132;51.972;4.450;2023-03-21T03:57:08;101360.38;;;7.99;100.00
69836;BME280;57132;51.972;4.450;2023-03-21T03:59:36;101360.56;;;7.96;100.00
69836;BME280;57132;51.972;4.450;2023-03-21T04:02:02;101358.06;;;7.93;100.00
69836;BME280;57132;51.972;4.450;2023-03-21T04:04:28;101349.38;;;7.89;100.00
69836;BME280;57132;51.972;4.450;2023-03-21T04:06:54;101352.28;;;7.85;100.00
69836;BME280;57132;51.972;4.450;2023-03-21T04:09:20;101347.13;;;7.82;100.00
69836;BME280;57132;51.972;4.450;2023-03-21T04:11:45;101345.56;;;7.78;100.00
69836;BME280;57132;51.972;4.450;2023-03-21T04:14:11;101349.16;;;7.77;100.00
69836;BME280;57132;51.972;4.450;2023-03-21T04:16:36;101340.38;;;7.75;100.00
69836;BME280;57132;51.972;4.450;2023-03-21T04:19:02;101341.94;;;7.79;100.00
69836;BME280;57132;51.972;4.450;2023-03-21T04:21:28;101333.34;;;7.74;100.00
69836;BME280;57132;51.972;4.450;2023-03-21T04:23:54;101333.25;;;7.75;100.00
69836;BME280;57132;51.972;4.450;2023-03-21T04:26:20;101337.72;;;7.75;100.00
69836;BME280;57132;51.972;4.450;2023-03-21T04:28:46;101329.59;;;7.78;100.00
69836;BME280;57132;51.972;4.450;2023-03-21T04:31:12;101327.81;;;7.78;100.00
69836;BME280;57132;51.972;4.450;2023-03-21T04:33:38;101331.97;;;7.84;100.00
69836;BME280;57132;51.972;4.450;2023-03-21T04:36:07;101325.69;;;7.85;100.00
69836;BME280;57132;51.972;4.450;2023-03-21T04:38:35;101327.56;;;7.83;100.00
69836;BME280;57132;51.972;4.450;2023-03-21T04:41:01;101330.06;;;7.86;100.00
69836;BME280;57132;51.972;4.450;2023-03-21T04:43:27;101323.91;;;7.85;100.00
69836;BME280;57132;51.972;4.450;2023-03-21T04:45:53;101320.28;;;7.86;100.00
69836;BME280;57132;51.972;4.450;2023-03-21T04:48:18;101319.34;;;7.87;100.00
69836;BME280;57132;51.972;4.450;2023-03-21T04:50:45;101321.78;;;7.92;100.00
69836;BME280;57132;51.972;4.450;2023-03-21T04:53:10;101316.38;;;7.94;100.00
69836;BME280;57132;51.972;4.450;2023-03-21T04:55:36;101312.88;;;7.93;100.00
69836;BME280;57132;51.972;4.450;2023-03-21T04:58:04;101308.31;;;7.95;100.00
69836;BME280;57132;51.972;4.450;2023-03-21T05:00:30;101300.28;;;7.97;100.00
69836;BME280;57132;51.972;4.450;2023-03-21T05:03:02;101297.53;;;7.98;100.00
69836;BME280;57132;51.972;4.450;2023-03-21T05:05:29;101300.09;;;8.00;100.00
69836;BME280;57132;51.972;4.450;2023-03-21T05:07:56;101302.00;;;7.98;100.00
69836;BME280;57132;51.972;4.450;2023-03-21T05:10:21;101302.84;;;7.98;100.00
69836;BME280;57132;51.972;4.450;2023-03-21T05:12:46;101306.31;;;8.00;100.00
69836;BME280;57132;51.972;4.450;2023-03-21T05:15:12;101298.31;;;8.00;100.00
69836;BME280;57132;51.972;4.450;2023-03-21T05:17:37;101307.91;;;8.03;100.00
69836;BME280;57132;51.972;4.450;2023-03-21T05:20:03;101307.41;;;7.96;100.00
69836;BME280;57132;51.972;4.450;2023-03-21T05:22:29;101310.66;;;8.01;100.00
69836;BME280;57132;51.972;4.450;2023-03-21T05:25:08;101306.34;;;7.99;100.00
69836;BME280;57132;51.972;4.450;2023-03-21T05:27:34;101313.38;;;8.00;100.00
69836;BME280;57132;51.972;4.450;2023-03-21T05:30:06;101308.97;;;8.00;100.00
69836;BME280;57132;51.972;4.450;2023-03-21T05:32:32;101303.69;;;7.99;100.00
69836;BME280;57132;51.972;4.450;2023-03-21T05:34:58;101308.25;;;7.97;100.00
69836;BME280;57132;51.972;4.450;2023-03-21T05:37:24;101308.16;;;7.98;100.00
69836;BME280;57132;51.972;4.450;2023-03-21T05:39:49;101305.41;;;8.00;100.00
69836;BME280;57132;51.972;4.450;2023-03-21T05:42:15;101305.41;;;8.00;100.00
69836;BME280;57132;51.972;4.450;2023-03-21T05:44:40;101309.88;;;7.99;100.00
69836;BME280;57132;51.972;4.450;2023-03-21T05:47:06;101308.97;;;8.00;100.00
69836;BME280;57132;51.972;4.450;2023-03-21T05:49:31;101310.81;;;7.98;100.00
69836;BME280;57132;51.972;4.450;2023-03-21T05:51:57;101307.41;;;7.96;100.00
69836;BME280;57132;51.972;4.450;2023-03-21T05:54:22;101306.34;;;7.99;100.00
69836;BME280;57132;51.972;4.450;2023-03-21T05:56:48;101309.88;;;7.99;100.00
69836;BME280;57132;51.972;4.450;2023-03-21T05:59:15;101309.09;;;7.97;100.00
69836;BME280;57132;51.972;4.450;2023-03-21T06:01:41;101302.28;;;7.92;100.00
69836;BME280;57132;51.972;4.450;2023-03-21T06:04:07;101307.72;;;7.90;100.00
69836;BME280;57132;51.972;4.450;2023-03-21T06:06:32;101313.19;;;7.87;100.00
69836;BME280;57132;51.972;4.450;2023-03-21T06:08:58;101316.69;;;7.87;100.00
69836;BME280;57132;51.972;4.450;2023-03-21T06:11:27;101320.22;;;7.88;100.00
69836;BME280;57132;51.972;4.450;2023-03-21T06:13:53;101317.63;;;7.86;100.00
69836;BME280;57132;51.972;4.450;2023-03-21T06:16:18;101312.88;;;7.93;100.00
69836;BME280;57132;51.972;4.450;2023-03-21T06:18:44;101314.69;;;7.93;100.00
69836;BME280;57132;51.972;4.450;2023-03-21T06:21:09;101311.16;;;7.92;100.00
69836;BME280;57132;51.972;4.450;2023-03-21T06:23:35;101316.28;;;7.95;100.00
69836;BME280;57132;51.972;4.450;2023-03-21T06:26:01;101318.03;;;7.96;100.00
69836;BME280;57132;51.972;4.450;2023-03-21T06:28:27;101316.47;;;7.92;100.00
69836;BME280;57132;51.972;4.450;2023-03-21T06:30:52;101314.72;;;7.91;100.00
69836;BME280;57132;51.972;4.450;2023-03-21T06:33:17;101314.81;;;7.89;100.00
69836;BME280;57132;51.972;4.450;2023-03-21T06:35:43;101310.28;;;7.92;100.00
69836;BME280;57132;51.972;4.450;2023-03-21T06:38:09;101310.47;;;7.88;100.00
69836;BME280;57132;51.972;4.450;2023-03-21T06:40:36;101310.59;;;7.85;100.00
69836;BME280;57132;51.972;4.450;2023-03-21T06:43:02;101308.03;;;7.84;100.00
69836;BME280;57132;51.972;4.450;2023-03-21T06:45:27;101311.47;;;7.86;100.00
69836;BME280;57132;51.972;4.450;2023-03-21T06:47:53;101303.75;;;7.81;100.00
69836;BME280;57132;51.972;4.450;2023-03-21T06:50:18;101302.19;;;7.77;100.00
69836;BME280;57132;51.972;4.450;2023-03-21T06:52:44;101290.69;;;7.77;100.00
69836;BME280;57132;51.972;4.450;2023-03-21T06:55:09;101296.00;;;7.77;100.00
69836;BME280;57132;51.972;4.450;2023-03-21T06:57:35;101283.47;;;7.79;100.00
69836;BME280;57132;51.972;4.450;2023-03-21T07:00:00;101279.72;;;7.83;100.00
69836;BME280;57132;51.972;4.450;2023-03-21T07:02:25;101268.09;;;7.85;100.00
69836;BME280;57132;51.972;4.450;2023-03-21T07:04:51;101266.38;;;7.84;100.00
69836;BME280;57132;51.972;4.450;2023-03-21T07:07:16;101273.50;;;7.84;100.00
69836;BME280;57132;51.972;4.450;2023-03-21T07:09:42;101267.06;;;7.88;100.00
69836;BME280;57132;51.972;4.450;2023-03-21T07:12:07;101263.47;;;7.89;100.00
69836;BME280;57132;51.972;4.450;2023-03-21T07:14:34;101262.69;;;7.87;100.00
69836;BME280;57132;51.972;4.450;2023-03-21T07:16:59;101274.00;;;7.91;100.00
69836;BME280;57132;51.972;4.450;2023-03-21T07:19:24;101270.34;;;7.93;100.00
69836;BME280;57132;51.972;4.450;2023-03-21T07:21:51;101272.66;;;7.99;100.00
69836;BME280;57132;51.972;4.450;2023-03-21T07:24:16;101261.41;;;7.94;100.00
69836;BME280;57132;51.972;4.450;2023-03-21T07:26:42;101271.81;;;7.99;100.00
69836;BME280;57132;51.972;4.450;2023-03-21T07:29:07;101270.19;;;7.96;100.00
69836;BME280;57132;51.972;4.450;2023-03-21T07:31:33;101273.59;;;7.98;100.00
69836;BME280;57132;51.972;4.450;2023-03-21T07:33:59;101272.59;;;8.01;100.00
69836;BME280;57132;51.972;4.450;2023-03-21T07:36:25;101275.31;;;7.99;100.00
69836;BME280;57132;51.972;4.450;2023-03-21T07:38:50;101265.31;;;8.04;100.00
69836;BME280;57132;51.972;4.450;2023-03-21T07:41:16;101266.88;;;8.08;100.00
69836;BME280;57132;51.972;4.450;2023-03-21T07:43:41;101260.25;;;8.16;100.00
69836;BME280;57132;51.972;4.450;2023-03-21T07:46:07;101263.00;;;8.14;100.00
69836;BME280;57132;51.972;4.450;2023-03-21T07:48:32;101258.38;;;8.18;100.00
69836;BME280;57132;51.972;4.450;2023-03-21T07:50:58;101253.94;;;8.18;100.00
69836;BME280;57132;51.972;4.450;2023-03-21T07:53:23;101255.72;;;8.18;100.00
69836;BME280;57132;51.972;4.450;2023-03-21T07:55:50;101252.91;;;8.21;100.00
69836;BME280;57132;51.972;4.450;2023-03-21T07:58:16;101252.50;;;8.28;100.00
69836;BME280;57132;51.972;4.450;2023-03-21T08:00:41;101251.38;;;8.32;100.00
69836;BME280;57132;51.972;4.450;2023-03-21T08:03:07;101239.41;;;8.41;100.00
69836;BME280;57132;51.972;4.450;2023-03-21T08:05:33;101249.25;;;8.55;100.00
69836;BME280;57132;51.972;4.450;2023-03-21T08:07:59;101242.50;;;8.65;100.00
69836;BME280;57132;51.972;4.450;2023-03-21T08:10:25;101248.50;;;8.69;100.00
69836;BME280;57132;51.972;4.450;2023-03-21T08:12:51;101241.81;;;8.77;100.00
69836;BME280;57132;51.972;4.450;2023-03-21T08:15:16;101235.88;;;8.88;100.00
69836;BME280;57132;51.972;4.450;2023-03-21T08:17:42;101238.59;;;8.86;100.00
69836;BME280;57132;51.972;4.450;2023-03-21T08:20:11;101241.88;;;8.92;100.00
69836;BME280;57132;51.972;4.450;2023-03-21T08:22:38;101236.47;;;8.93;100.00
69836;BME280;57132;51.972;4.450;2023-03-21T08:25:06;101241.50;;;8.98;100.00
69836;BME280;57132;51.972;4.450;2023-03-21T08:27:32;101245.09;;;9.13;100.00
69836;BME280;57132;51.972;4.450;2023-03-21T08:29:59;101232.09;;;9.22;100.00
69836;BME280;57132;51.972;4.450;2023-03-21T08:32:24;101234.56;;;9.55;100.00
69836;BME280;57132;51.972;4.450;2023-03-21T08:34:54;101232.00;;;9.68;100.00
69836;BME280;57132;51.972;4.450;2023-03-21T08:37:20;101223.53;;;9.61;100.00
69836;BME280;57132;51.972;4.450;2023-03-21T08:39:45;101228.13;;;9.88;100.00
69836;BME280;57132;51.972;4.450;2023-03-21T08:42:11;101221.09;;;9.87;100.00
69836;BME280;57132;51.972;4.450;2023-03-21T08:44:36;101226.72;;;10.11;100.00
69836;BME280;57132;51.972;4.450;2023-03-21T08:47:03;101221.44;;;10.52;100.00
69836;BME280;57132;51.972;4.450;2023-03-21T08:49:28;101229.06;;;10.58;100.00
69836;BME280;57132;51.972;4.450;2023-03-21T08:51:55;101235.09;;;10.19;100.00
69836;BME280;57132;51.972;4.450;2023-03-21T08:54:21;101241.47;;;10.17;100.00
69836;BME280;57132;51.972;4.450;2023-03-21T08:56:47;101223.09;;;10.26;100.00
69836;BME280;57132;51.972;4.450;2023-03-21T08:59:13;101210.50;;;10.43;100.00
69836;BME280;57132;51.972;4.450;2023-03-21T09:01:39;101205.50;;;10.65;100.00
69836;BME280;57132;51.972;4.450;2023-03-21T09:04:05;101205.19;;;10.97;100.00
69836;BME280;57132;51.972;4.450;2023-03-21T09:06:35;101203.31;;;11.24;100.00
69836;BME280;57132;51.972;4.450;2023-03-21T09:09:00;101203.94;;;11.15;100.00
69836;BME280;57132;51.972;4.450;2023-03-21T09:11:26;101206.63;;;11.28;100.00
69836;BME280;57132;51.972;4.450;2023-03-21T09:13:51;101199.34;;;11.17;100.00
69836;BME280;57132;51.972;4.450;2023-03-21T09:16:16;101203.31;;;11.24;100.00
69836;BME280;57132;51.972;4.450;2023-03-21T09:18:42;101197.09;;;11.11;100.00
69836;BME280;57132;51.972;4.450;2023-03-21T09:21:14;101196.16;;;11.25;100.00
69836;BME280;57132;51.972;4.450;2023-03-21T09:23:41;101192.72;;;11.23;100.00
69836;BME280;57132;51.972;4.450;2023-03-21T09:26:07;101204.13;;;11.12;100.00
69836;BME280;57132;51.972;4.450;2023-03-21T09:28:34;101186.56;;;10.95;100.00
69836;BME280;57132;51.972;4.450;2023-03-21T09:31:01;101192.41;;;10.88;100.00
69836;BME280;57132;51.972;4.450;2023-03-21T09:33:28;101206.63;;;10.88;100.00
69836;BME280;57132;51.972;4.450;2023-03-21T09:35:54;101186.22;;;10.87;100.00
69836;BME280;57132;51.972;4.450;2023-03-21T09:38:20;101191.34;;;10.77;100.00
69836;BME280;57132;51.972;4.450;2023-03-21T09:46:41;101194.88;;;10.78;100.00
69836;BME280;57132;51.972;4.450;2023-03-21T09:49:15;101186.88;;;10.91;100.00
69836;BME280;57132;51.972;4.450;2023-03-21T09:51:44;101209.53;;;10.85;100.00
69836;BME280;57132;51.972;4.450;2023-03-21T09:56:48;101191.41;;;11.03;100.00
69836;BME280;57132;51.972;4.450;2023-03-21T09:59:27;101193.56;;;11.11;100.00
69836;BME280;57132;51.972;4.450;2023-03-21T10:01:56;101187.16;;;11.13;100.00
69836;BME280;57132;51.972;4.450;2023-03-21T10:04:24;101187.06;;;11.15;100.00
69836;BME280;57132;51.972;4.450;2023-03-21T10:06:59;101184.91;;;11.20;100.00
69836;BME280;57132;51.972;4.450;2023-03-21T10:09:27;101184.59;;;11.24;100.00
69836;BME280;57132;51.972;4.450;2023-03-21T10:11:58;101183.41;;;11.16;100.00
69836;BME280;57132;51.972;4.450;2023-03-21T10:14:32;101198.97;;;10.96;100.00
69836;BME280;57132;51.972;4.450;2023-03-21T10:17:37;101204.53;;;10.93;100.00
69836;BME280;57132;51.972;4.450;2023-03-21T10:20:26;101203.72;;;10.78;100.00
69836;BME280;57132;51.972;4.450;2023-03-21T10:22:54;101221.94;;;10.72;100.00
69836;BME280;57132;51.972;4.450;2023-03-21T10:25:25;101218.94;;;10.64;100.00
69836;BME280;57132;51.972;4.450;2023-03-21T10:27:52;101224.19;;;10.65;100.00
69836;BME280;57132;51.972;4.450;2023-03-21T10:30:27;101214.63;;;10.61;100.00
69836;BME280;57132;51.972;4.450;2023-03-21T10:32:56;101240.03;;;10.54;100.00
69836;BME280;57132;51.972;4.450;2023-03-21T10:35:23;101223.66;;;10.46;100.00
69836;BME280;57132;51.972;4.450;2023-03-21T10:37:49;101215.19;;;10.39;100.00
69836;BME280;57132;51.972;4.450;2023-03-21T10:40:17;101215.47;;;10.34;100.00
69836;BME280;57132;51.972;4.450;2023-03-21T10:42:43;101201.72;;;10.41;100.00
69836;BME280;57132;51.972;4.450;2023-03-21T10:45:15;101194.63;;;10.27;100.00
69836;BME280;57132;51.972;4.450;2023-03-21T10:47:46;101191.94;;;10.27;100.00
69836;BME280;57132;51.972;4.450;2023-03-21T10:50:14;101198.28;;;10.24;100.00
69836;BME280;57132;51.972;4.450;2023-03-21T10:52:49;101202.03;;;10.36;100.00
69836;BME280;57132;51.972;4.450;2023-03-21T10:57:40;101168.66;;;10.70;100.00
69836;BME280;57132;51.972;4.450;2023-03-21T11:00:07;101159.97;;;10.94;100.00
69836;BME280;57132;51.972;4.450;2023-03-21T11:02:39;101164.38;;;11.07;100.00
69836;BME280;57132;51.972;4.450;2023-03-21T11:05:21;101173.19;;;11.22;100.00
69836;BME280;57132;51.972;4.450;2023-03-21T11:08:04;101165.81;;;11.26;100.00
69836;BME280;57132;51.972;4.450;2023-03-21T11:10:37;101168.69;;;11.23;100.00
69836;BME280;57132;51.972;4.450;2023-03-21T11:13:26;101167.31;;;11.30;100.00
69836;BME280;57132;51.972;4.450;2023-03-21T11:16:04;101178.06;;;11.16;100.00
69836;BME280;57132;51.972;4.450;2023-03-21T11:18:30;101176.16;;;11.18;100.00
69836;BME280;57132;51.972;4.450;2023-03-21T11:21:04;101178.53;;;11.22;100.00
69836;BME280;57132;51.972;4.450;2023-03-21T11:23:33;101180.22;;;11.23;100.00
69836;BME280;57132;51.972;4.450;2023-03-21T11:26:00;101177.84;;;11.06;100.00
69836;BME280;57132;51.972;4.450;2023-03-21T11:28:33;101183.25;;;10.92;100.00
69836;BME280;57132;51.972;4.450;2023-03-21T11:31:02;101186.66;;;10.81;100.00
69836;BME280;57132;51.972;4.450;2023-03-21T11:33:35;101190.88;;;10.71;100.00
69836;BME280;57132;51.972;4.450;2023-03-21T11:36:04;101204.53;;;10.66;100.00
69836;BME280;57132;51.972;4.450;2023-03-21T11:38:34;101187.38;;;10.56;100.00
69836;BME280;57132;51.972;4.450;2023-03-21T11:41:01;101192.34;;;10.62;100.00
69836;BME280;57132;51.972;4.450;2023-03-21T11:43:33;101191.69;;;10.58;100.00
69836;BME280;57132;51.972;4.450;2023-03-21T11:46:05;101186.53;;;10.55;100.00
69836;BME280;57132;51.972;4.450;2023-03-21T11:48:43;101179.38;;;10.83;100.00
69836;BME280;57132;51.972;4.450;2023-03-21T11:51:51;101182.94;;;10.96;100.00
69836;BME280;57132;51.972;4.450;2023-03-21T11:54:27;101182.53;;;11.02;100.00
69836;BME280;57132;51.972;4.450;2023-03-21T11:59:47;101149.19;;;12.47;100.00
69836;BME280;57132;51.972;4.450;2023-03-21T12:05:07;101173.97;;;12.38;100.00
69836;BME280;57132;51.972;4.450;2023-03-21T12:07:54;101165.91;;;11.63;100.00
69836;BME280;57132;51.972;4.450;2023-03-21T12:10:39;101158.84;;;11.11;100.00
69836;BME280;57132;51.972;4.450;2023-03-21T12:21:05;101142.34;;;11.04;100.00
69836;BME280;57132;51.972;4.450;2023-03-21T12:29:32;101136.94;;;11.18;100.00
69836;BME280;57132;51.972;4.450;2023-03-21T12:35:41;101125.59;;;11.15;100.00
69836;BME280;57132;51.972;4.450;2023-03-21T12:38:15;101137.88;;;11.04;100.00
69836;BME280;57132;51.972;4.450;2023-03-21T12:40:57;101126.56;;;11.14;100.00
69836;BME280;57132;51.972;4.450;2023-03-21T12:43:44;101124.22;;;11.22;100.00
69836;BME280;57132;51.972;4.450;2023-03-21T12:49:06;101120.38;;;11.26;100.00
69836;BME280;57132;51.972;4.450;2023-03-21T12:51:38;101111.81;;;11.46;100.00
69836;BME280;57132;51.972;4.450;2023-03-21T12:57:13;101113.94;;;11.67;100.00
69836;BME280;57132;51.972;4.450;2023-03-21T13:02:19;101116.44;;;11.44;100.00
69836;BME280;57132;51.972;4.450;2023-03-21T13:04:55;101101.53;;;11.40;100.00
69836;BME280;57132;51.972;4.450;2023-03-21T13:07:22;101085.28;;;11.69;100.00
69836;BME280;57132;51.972;4.450;2023-03-21T13:09:49;101082.47;;;11.96;100.00
69836;BME280;57132;51.972;4.450;2023-03-21T13:12:20;101097.34;;;11.87;100.00
69836;BME280;57132;51.972;4.450;2023-03-21T13:14:58;101077.78;;;11.87;100.00
69836;BME280;57132;51.972;4.450;2023-03-21T13:17:31;101084.03;;;11.49;100.00
69836;BME280;57132;51.972;4.450;2023-03-21T13:20:14;101073.13;;;11.39;100.00
69836;BME280;57132;51.972;4.450;2023-03-21T13:22:44;101081.91;;;11.28;100.00
69836;BME280;57132;51.972;4.450;2023-03-21T13:25:23;101092.81;;;11.25;100.00
69836;BME280;57132;51.972;4.450;2023-03-21T13:27:54;101078.28;;;11.17;100.00
69836;BME280;57132;51.972;4.450;2023-03-21T13:30:27;101090.13;;;11.13;100.00
69836;BME280;57132;51.972;4.450;2023-03-21T13:33:13;101085.19;;;11.06;100.00
69836;BME280;57132;51.972;4.450;2023-03-21T13:35:40;101082.00;;;11.14;100.00
69836;BME280;57132;51.972;4.450;2023-03-21T13:38:18;101090.13;;;11.13;100.00
69836;BME280;57132;51.972;4.450;2023-03-21T13:41:15;101077.59;;;11.00;100.00
69836;BME280;57132;51.972;4.450;2023-03-21T13:46:53;101086.78;;;10.96;100.00
69836;BME280;57132;51.972;4.450;2023-03-21T13:53:59;101076.53;;;11.03;100.00
69836;BME280;57132;51.972;4.450;2023-03-21T13:56:25;101061.28;;;11.05;100.00
69836;BME280;57132;51.972;4.450;2023-03-21T13:59:00;101053.78;;;11.10;100.00
69836;BME280;57132;51.972;4.450;2023-03-21T14:04:02;101062.59;;;10.72;100.00
69836;BME280;57132;51.972;4.450;2023-03-21T14:06:53;101059.63;;;10.77;100.00
69836;BME280;57132;51.972;4.450;2023-03-21T14:11:55;101055.69;;;10.95;100.00
69836;BME280;57132;51.972;4.450;2023-03-21T14:14:23;101060.50;;;10.90;100.00